Time;durP1;ratioP1;P1;durP2;ratioP2;P2;SDS_P1;SDS_P2;PMS_P1;PMS_P2;Temp;Humidity;BMP_temperature;BMP_pressure;BME280_temperature;BME280_humidity;BME280_pressure;Samples;Min_cycle;Max_cycle;Signal;HPM_P1;HPM_P2
2023/01/22 00:04:32;;;;;;;;;;;;;;;-3.52;100.00;103021.16;10517000;28;20929;-76
2023/01/22 00:09:32;;;;;;;;;;;;;;;-3.61;100.00;103025.94;10508344;28;19924;-76
2023/01/22 00:14:33;;;;;;;;;;;;;;;-3.46;100.00;103024.56;10498107;28;20287;-75
2023/01/22 00:19:33;;;;;;;;;;;;;;;-3.49;100.00;103019.97;10511038;28;19920;-76
2023/01/22 00:24:34;;;;;;;;;;;;;;;-3.58;100.00;103011.91;10522466;28;19923;-76
2023/01/22 00:29:34;;;;;;;;;;;;;;;-3.67;100.00;103002.06;10493868;28;19920;-77
2023/01/22 00:34:34;;;;;;;;;;;;;;;-3.67;100.00;103004.63;10502073;28;19926;-76
2023/01/22 00:39:35;;;;;;;;;;;;;;;-3.72;100.00;103003.97;10497016;28;19920;-76
2023/01/22 00:44:35;;;;;;;;;;;;;;;-3.63;100.00;103000.13;10491216;28;20368;-76
2023/01/22 00:49:35;;;;;;;;;;;;;;;-3.79;100.00;102998.69;10473714;28;19920;-77
2023/01/22 00:54:36;;;;;;;;;;;;;;;-3.90;100.00;102995.56;10512546;28;19932;-76
2023/01/22 00:59:36;;;;;;;;;;;;;;;-4.02;100.00;102992.22;10509728;28;19923;-76
2023/01/22 01:04:37;;;;;;;;;;;;;;;-4.11;100.00;102984.88;10506536;28;20627;-76
2023/01/22 01:09:37;;;;;;;;;;;;;;;-3.76;100.00;102991.44;10527757;28;19926;-76
2023/01/22 01:14:38;;;;;;;;;;;;;;;-3.37;100.00;102984.88;10506811;28;19926;-77
2023/01/22 01:19:38;;;;;;;;;;;;;;;-2.88;100.00;102988.09;10519634;28;20364;-77
2023/01/22 01:24:38;;;;;;;;;;;;;;;-2.67;100.00;102981.47;10494737;28;19927;-76
2023/01/22 01:29:39;;;;;;;;;;;;;;;-2.54;100.00;102977.28;10528843;28;19928;-77
2023/01/22 01:34:39;;;;;;;;;;;;;;;-2.49;100.00;102976.97;10498121;28;19920;-76
2023/01/22 01:39:39;;;;;;;;;;;;;;;-2.43;100.00;102975.22;10488769;28;19920;-77
2023/01/22 01:44:41;;;;;;;;;;;;;;;-2.40;100.00;102989.38;10471790;28;20303;-77
2023/01/22 01:49:41;;;;;;;;;;;;;;;-2.34;100.00;102986.72;10469431;28;19916;-77
2023/01/22 01:54:41;;;;;;;;;;;;;;;-2.29;100.00;102979.63;10478908;28;19921;-77
2023/01/22 01:59:42;;;;;;;;;;;;;;;-2.27;100.00;102983.31;10454152;28;19927;-77
2023/01/22 02:04:42;;;;;;;;;;;;;;;-2.29;100.00;102959.09;10459497;28;20265;-76
2023/01/22 02:09:42;;;;;;;;;;;;;;;-2.28;100.00;102961.88;10516730;28;19981;-77
2023/01/22 02:14:43;;;;;;;;;;;;;;;-2.24;100.00;102955.50;10504783;28;20383;-77
2023/01/22 02:19:43;;;;;;;;;;;;;;;-2.23;100.00;102960.84;10514158;28;19927;-76
2023/01/22 02:24:44;;;;;;;;;;;;;;;-2.28;100.00;102941.34;10493133;28;20368;-76
2023/01/22 02:29:44;;;;;;;;;;;;;;;-2.29;100.00;102941.13;10472891;28;19920;-77
2023/01/22 02:34:44;;;;;;;;;;;;;;;-2.29;100.00;102947.22;10509497;28;19992;-76
2023/01/22 02:39:45;;;;;;;;;;;;;;;-2.29;100.00;102948.84;10487957;28;19924;-76
2023/01/22 02:44:45;;;;;;;;;;;;;;;-2.32;100.00;102945.84;10509329;28;20422;-77
2023/01/22 02:49:45;;;;;;;;;;;;;;;-2.36;100.00;102948.03;10504828;28;19920;-77
2023/01/22 02:54:45;;;;;;;;;;;;;;;-2.39;100.00;102950.19;10520020;28;19916;-77
2023/01/22 02:59:46;;;;;;;;;;;;;;;-2.39;100.00;102941.56;10519326;28;19924;-77
2023/01/22 03:04:48;;;;;;;;;;;;;;;-2.40;100.00;102943.19;10505221;28;20505;-77
2023/01/22 03:09:49;;;;;;;;;;;;;;;-2.40;100.00;102930.38;10497446;28;20334;-77
2023/01/22 03:25:27;;;;;;;;;;;;;;;-2.32;100.00;102927.91;10501944;28;19924;-77
2023/01/22 03:30:27;;;;;;;;;;;;;;;-2.37;100.00;102909.34;10505284;28;19932;-76
2023/01/22 03:35:28;;;;;;;;;;;;;;;-2.39;100.00;102903.09;10490447;28;19920;-76
2023/01/22 03:40:28;;;;;;;;;;;;;;;-2.44;100.00;102896.44;10497250;28;19920;-77
2023/01/22 03:45:31;;;;;;;;;;;;;;;-2.49;100.00;102907.72;10510460;28;20015;-77
2023/01/22 03:50:31;;;;;;;;;;;;;;;-2.56;100.00;102898.28;10511765;28;19995;-77
2023/01/22 03:55:31;;;;;;;;;;;;;;;-2.58;100.00;102897.16;10479830;28;20337;-76
2023/01/22 04:00:31;;;;;;;;;;;;;;;-2.63;100.00;102894.00;10500583;28;19924;-77
2023/01/22 04:05:32;;;;;;;;;;;;;;;-2.64;100.00;102889.59;10484029;28;19932;-77
2023/01/22 04:10:32;;;;;;;;;;;;;;;-2.77;100.00;102887.00;10467971;28;19928;-76
2023/01/22 04:15:33;;;;;;;;;;;;;;;-2.84;100.00;102892.03;10501356;28;20283;-76
2023/01/22 04:20:33;;;;;;;;;;;;;;;-2.92;100.00;102892.66;10469970;28;20014;-77
2023/01/22 04:25:33;;;;;;;;;;;;;;;-2.89;100.00;102900.75;10446481;28;20346;-77
2023/01/22 04:30:34;;;;;;;;;;;;;;;-2.89;100.00;102898.19;10471777;28;19924;-77
2023/01/22 04:35:34;;;;;;;;;;;;;;;-2.90;100.00;102901.47;10454281;28;19974;-76
2023/01/22 04:40:35;;;;;;;;;;;;;;;-2.92;100.00;102898.72;10453739;28;19928;-77
2023/01/22 04:45:35;;;;;;;;;;;;;;;-2.86;100.00;102898.59;10461182;28;19930;-77
2023/01/22 04:50:35;;;;;;;;;;;;;;;-2.71;100.00;102892.97;10455832;28;19921;-77
2023/01/22 04:55:35;;;;;;;;;;;;;;;-2.58;100.00;102902.28;10477956;28;20357;-76
2023/01/22 05:00:36;;;;;;;;;;;;;;;-2.53;100.00;102896.13;10470921;28;19926;-78
2023/01/22 05:05:36;;;;;;;;;;;;;;;-2.49;100.00;102887.22;10455224;28;20055;-76
2023/01/22 05:10:37;;;;;;;;;;;;;;;-2.48;100.00;102889.06;10469962;28;19920;-76
2023/01/22 05:15:37;;;;;;;;;;;;;;;-2.52;100.00;102901.47;10439530;28;19921;-77
2023/01/22 05:20:37;;;;;;;;;;;;;;;-2.54;100.00;102892.66;10466283;28;19921;-77
2023/01/22 05:25:38;;;;;;;;;;;;;;;-2.53;100.00;102908.94;10471889;28;19936;-77
2023/01/22 05:30:38;;;;;;;;;;;;;;;-2.47;100.00;102907.19;10448725;28;19921;-77
2023/01/22 05:35:38;;;;;;;;;;;;;;;-2.38;100.00;102910.06;10473135;28;20382;-77
2023/01/22 05:40:39;;;;;;;;;;;;;;;-2.30;100.00;102911.06;10457294;28;19927;-77
2023/01/22 05:45:39;;;;;;;;;;;;;;;-2.27;100.00;102907.28;10458151;28;19924;-77
2023/01/22 05:50:39;;;;;;;;;;;;;;;-2.25;100.00;102903.28;10463674;28;19920;-77
2023/01/22 05:55:40;;;;;;;;;;;;;;;-2.25;100.00;102912.59;10460225;28;19920;-76
2023/01/22 06:00:40;;;;;;;;;;;;;;;-2.23;100.00;102919.78;10454633;28;19920;-76
2023/01/22 06:05:40;;;;;;;;;;;;;;;-2.17;100.00;102921.31;10465671;28;19979;-77
2023/01/22 06:10:41;;;;;;;;;;;;;;;-2.14;100.00;102920.06;10461668;28;20372;-77
2023/01/22 06:15:44;;;;;;;;;;;;;;;-2.12;100.00;102925.41;10464588;28;19940;-77
2023/01/22 06:20:44;;;;;;;;;;;;;;;-2.10;100.00;102918.84;10480948;28;19920;-77
2023/01/22 06:25:50;;;;;;;;;;;;;;;-2.10;100.00;102930.03;10484630;28;19920;-77
2023/01/22 06:30:51;;;;;;;;;;;;;;;-2.09;100.00;102928.41;10498040;28;20287;-76
2023/01/22 06:35:54;;;;;;;;;;;;;;;-2.09;100.00;102931.88;10487917;28;19931;-77
2023/01/22 06:40:55;;;;;;;;;;;;;;;-2.04;100.00;102928.97;10510563;28;19951;-77
2023/01/22 06:45:55;;;;;;;;;;;;;;;-2.04;100.00;102922.22;10466644;28;20015;-76
2023/01/22 06:50:56;;;;;;;;;;;;;;;-2.04;100.00;102926.41;10509812;28;19924;-78
2023/01/22 06:56:00;;;;;;;;;;;;;;;-2.04;100.00;102927.34;10517325;28;20423;-78
2023/01/22 07:01:00;;;;;;;;;;;;;;;-2.04;100.00;102927.34;10520420;28;19920;-77
2023/01/22 07:06:01;;;;;;;;;;;;;;;-2.02;100.00;102933.59;10510659;28;19920;-77
2023/01/22 07:11:01;;;;;;;;;;;;;;;-1.99;100.00;102938.22;10499912;28;19924;-77
2023/01/22 07:16:02;;;;;;;;;;;;;;;-1.97;100.00;102941.91;10492814;28;19935;-76
2023/01/22 07:21:03;;;;;;;;;;;;;;;-1.97;100.00;102941.91;10472706;28;19927;-76
2023/01/22 07:26:03;;;;;;;;;;;;;;;-1.96;100.00;102944.69;10492979;28;19919;-77
2023/01/22 07:31:07;;;;;;;;;;;;;;;-1.95;100.00;102956.78;10500065;28;19924;-76
2023/01/22 07:36:08;;;;;;;;;;;;;;;-1.91;100.00;102947.84;10497949;28;19928;-77
2023/01/22 07:41:08;;;;;;;;;;;;;;;-1.89;100.00;102950.63;10488819;28;19924;-78
2023/01/22 07:46:08;;;;;;;;;;;;;;;-1.86;100.00;102966.44;10483177;28;19920;-77
2023/01/22 07:51:11;;;;;;;;;;;;;;;-1.86;100.00;102962.19;10473252;28;19931;-77
2023/01/22 07:56:11;;;;;;;;;;;;;;;-1.82;100.00;102963.53;10491212;28;19932;-76
2023/01/22 08:01:12;;;;;;;;;;;;;;;-1.82;100.00;102968.66;10507668;28;19927;-78
2023/01/22 08:06:14;;;;;;;;;;;;;;;-1.80;100.00;102970.69;10491840;28;19928;-78
2023/01/22 08:11:14;;;;;;;;;;;;;;;-1.79;100.00;102957.16;10497380;28;19920;-78
2023/01/22 08:16:15;;;;;;;;;;;;;;;-1.77;100.00;102978.81;10495925;28;20291;-77
2023/01/22 08:21:15;;;;;;;;;;;;;;;-1.74;100.00;102979.94;10490860;28;20288;-78
2023/01/22 08:26:15;;;;;;;;;;;;;;;-1.73;100.00;102980.16;10473554;28;20444;-78
2023/01/22 08:31:16;;;;;;;;;;;;;;;-1.70;100.00;102982.19;10483105;28;19963;-77
2023/01/22 08:36:16;;;;;;;;;;;;;;;-1.68;100.00;102984.25;10502930;28;19982;-75
2023/01/22 08:41:16;;;;;;;;;;;;;;;-1.64;100.00;102982.97;10480437;28;19928;-76
2023/01/22 08:46:17;;;;;;;;;;;;;;;-1.59;100.00;102989.63;10495075;28;20394;-76
2023/01/22 08:51:17;;;;;;;;;;;;;;;-1.53;100.00;102979.25;10502862;28;20368;-76
2023/01/22 08:56:18;;;;;;;;;;;;;;;-1.49;100.00;102976.38;10490202;28;19927;-76
2023/01/22 09:01:18;;;;;;;;;;;;;;;-1.47;100.00;102987.75;10486524;28;19920;-76
2023/01/22 09:06:18;;;;;;;;;;;;;;;-1.49;100.00;102989.22;10498622;28;20007;-76
2023/01/22 09:11:19;;;;;;;;;;;;;;;-1.50;100.00;102987.38;10516222;28;20299;-77
2023/01/22 09:16:19;;;;;;;;;;;;;;;-1.51;100.00;102986.44;10486043;28;19920;-76
2023/01/22 09:21:19;;;;;;;;;;;;;;;-1.50;100.00;102993.41;10510689;28;20397;-76
2023/01/22 09:26:20;;;;;;;;;;;;;;;-1.45;100.00;102998.22;10495303;28;19970;-77
2023/01/22 09:31:20;;;;;;;;;;;;;;;-1.43;100.00;102989.06;10502395;28;19920;-77
2023/01/22 09:36:20;;;;;;;;;;;;;;;-1.41;100.00;103003.03;10518883;28;20555;-79
2023/01/22 09:41:22;;;;;;;;;;;;;;;-1.38;100.00;102990.59;10495137;28;19928;-77
2023/01/22 09:46:35;;;;;;;;;;;;;;;-1.33;100.00;102993.06;10477470;28;19915;-77
2023/01/22 09:51:35;;;;;;;;;;;;;;;-1.27;100.00;102992.00;10514956;28;19951;-77
2023/01/22 09:56:44;;;;;;;;;;;;;;;-1.21;100.00;102995.34;10491265;28;20015;-75
2023/01/22 10:01:45;;;;;;;;;;;;;;;-1.11;100.00;102994.88;10481870;28;20385;-76
2023/01/22 10:06:46;;;;;;;;;;;;;;;-1.03;100.00;103001.94;10481329;28;20015;-76
2023/01/22 10:11:48;;;;;;;;;;;;;;;-0.98;100.00;103000.88;10476037;28;20465;-77
2023/01/22 10:16:48;;;;;;;;;;;;;;;-0.93;100.00;102988.63;10469473;28;19947;-77
2023/01/22 10:21:53;;;;;;;;;;;;;;;-0.86;100.00;102998.03;10502498;28;20003;-77
2023/01/22 10:26:54;;;;;;;;;;;;;;;-0.91;100.00;103010.31;10511339;28;20364;-76
2023/01/22 10:31:58;;;;;;;;;;;;;;;-0.99;100.00;103001.59;10511830;28;19966;-77
2023/01/22 10:36:59;;;;;;;;;;;;;;;-0.94;100.00;103003.13;10508181;28;19924;-76
2023/01/22 10:42:00;;;;;;;;;;;;;;;-0.94;100.00;103004.78;10510061;28;19916;-77
2023/01/22 10:47:08;;;;;;;;;;;;;;;-0.91;100.00;103000.03;10528936;28;19920;-76
2023/01/22 10:52:28;;;;;;;;;;;;;;;-0.83;100.00;103004.50;10527686;28;19927;-77
2023/01/22 10:57:33;;;;;;;;;;;;;;;-0.70;100.00;103001.84;10526650;28;19972;-76
2023/01/22 11:02:33;;;;;;;;;;;;;;;-0.61;100.00;102986.66;10510009;28;19920;-76
2023/01/22 11:07:34;;;;;;;;;;;;;;;-0.59;100.00;102980.06;10506675;28;19927;-76
2023/01/22 11:12:35;;;;;;;;;;;;;;;-0.68;100.00;102969.50;10526974;28;19920;-76
2023/01/22 11:17:37;;;;;;;;;;;;;;;-0.81;100.00;102971.25;10509142;28;19923;-76
2023/01/22 11:22:37;;;;;;;;;;;;;;;-0.75;100.00;102972.97;10488218;28;19970;-76
2023/01/22 11:27:44;;;;;;;;;;;;;;;-0.65;100.00;102976.72;10508157;28;20338;-76
2023/01/22 11:32:53;;;;;;;;;;;;;;;-0.66;100.00;102987.72;10508090;28;19916;-76
2023/01/22 11:38:01;;;;;;;;;;;;;;;-0.64;100.00;102974.31;10474760;28;19924;-76
2023/01/22 11:43:10;;;;;;;;;;;;;;;-0.67;100.00;102976.50;10517007;28;20283;-76
2023/01/22 11:48:34;;;;;;;;;;;;;;;-0.56;100.00;102962.44;10517413;28;19927;-78
2023/01/22 11:53:34;;;;;;;;;;;;;;;-0.38;100.00;102960.34;10493767;28;20475;-77
2023/01/22 11:58:47;;;;;;;;;;;;;;;-0.27;100.00;102957.47;10504789;28;19927;-75
2023/01/22 12:03:59;;;;;;;;;;;;;;;-0.26;100.00;102940.34;10507215;28;20357;-76
2023/01/22 12:09:05;;;;;;;;;;;;;;;-0.34;100.00;102958.31;10482210;28;19920;-76
2023/01/22 12:14:10;;;;;;;;;;;;;;;-0.41;100.00;102945.41;10499583;28;20010;-77
2023/01/22 12:19:10;;;;;;;;;;;;;;;-0.45;100.00;102956.06;10503731;28;19920;-76
2023/01/22 12:24:18;;;;;;;;;;;;;;;-0.49;100.00;102956.41;10484530;28;19932;-76
2023/01/22 12:29:18;;;;;;;;;;;;;;;-0.51;100.00;102956.22;10485940;28;19920;-77
2023/01/22 12:34:20;;;;;;;;;;;;;;;-0.51;100.00;102958.78;10498163;28;20379;-77
2023/01/22 12:39:28;;;;;;;;;;;;;;;-0.52;100.00;102961.16;10487456;28;19924;-78
2023/01/22 12:44:43;;;;;;;;;;;;;;;-0.49;100.00;102953.84;10499955;28;19920;-79
2023/01/22 12:49:48;;;;;;;;;;;;;;;-0.45;100.00;102954.44;10529275;28;19973;-81
2023/01/22 12:54:52;;;;;;;;;;;;;;;-0.41;100.00;102960.84;10508429;28;20368;-76
2023/01/22 12:59:55;;;;;;;;;;;;;;;-0.49;100.00;102956.41;10500172;28;19920;-75
2023/01/22 13:04:56;;;;;;;;;;;;;;;-0.50;100.00;102967.41;10472345;28;19917;-75
2023/01/22 13:10:20;;;;;;;;;;;;;;;-0.46;100.00;102967.06;10502751;28;20330;-77
2023/01/22 13:15:20;;;;;;;;;;;;;;;-0.41;100.00;102965.09;10510822;28;20030;-79
2023/01/22 13:20:20;;;;;;;;;;;;;;;-0.43;100.00;102977.75;10527832;28;19929;-76
2023/01/22 13:25:24;;;;;;;;;;;;;;;-0.46;100.00;102962.88;10497451;28;20010;-78
2023/01/22 13:30:26;;;;;;;;;;;;;;;-0.48;100.00;102976.25;10472672;28;19917;-78
2023/01/22 13:35:26;;;;;;;;;;;;;;;-0.54;100.00;102978.06;10483811;28;19919;-77
2023/01/22 13:40:27;;;;;;;;;;;;;;;-0.57;100.00;102978.59;10508949;28;19920;-77
2023/01/22 13:45:27;;;;;;;;;;;;;;;-0.57;100.00;102986.31;10475715;28;19920;-77
2023/01/22 13:50:29;;;;;;;;;;;;;;;-0.57;100.00;102985.38;10471232;28;20276;-77
2023/01/22 13:55:29;;;;;;;;;;;;;;;-0.54;100.00;102970.34;10512263;28;19945;-77
2023/01/22 14:00:33;;;;;;;;;;;;;;;-0.52;100.00;102980.09;10509147;28;19939;-77
2023/01/22 14:05:33;;;;;;;;;;;;;;;-0.53;100.00;102978.25;10478365;28;19997;-77
2023/01/22 14:10:34;;;;;;;;;;;;;;;-0.53;100.00;102980.84;10510151;28;20006;-77
2023/01/22 14:15:35;;;;;;;;;;;;;;;-0.51;100.00;102978.44;10510973;28;19932;-77
2023/01/22 14:20:37;;;;;;;;;;;;;;;-0.51;100.00;102981.94;10511169;28;20256;-77
2023/01/22 14:25:44;;;;;;;;;;;;;;;-0.49;100.00;102983.06;10510905;28;19924;-77
2023/01/22 14:30:45;;;;;;;;;;;;;;;-0.48;100.00;102995.19;10510461;28;19954;-77
2023/01/22 14:35:45;;;;;;;;;;;;;;;-0.53;100.00;102995.34;10526652;28;19930;-77
2023/01/22 14:40:45;;;;;;;;;;;;;;;-0.54;100.00;103001.22;10527672;28;19916;-77
2023/01/22 14:45:46;;;;;;;;;;;;;;;-0.55;100.00;103005.44;10528326;28;19926;-77
2023/01/22 14:50:46;;;;;;;;;;;;;;;-0.49;100.00;103013.00;10527258;28;20015;-77
2023/01/22 14:55:47;;;;;;;;;;;;;;;-0.47;100.00;103012.47;10527126;28;19924;-77
2023/01/22 15:00:47;;;;;;;;;;;;;;;-0.46;100.00;103014.31;10509070;28;19916;-77
2023/01/22 15:05:51;;;;;;;;;;;;;;;-0.49;100.00;103023.28;10527400;28;19946;-77
2023/01/22 15:10:51;;;;;;;;;;;;;;;-0.50;100.00;103031.75;10467374;28;20360;-77
2023/01/22 15:15:51;;;;;;;;;;;;;;;-0.51;100.00;103029.91;10480741;28;19924;-77
2023/01/22 15:20:52;;;;;;;;;;;;;;;-0.55;100.00;103035.38;10515803;28;19924;-77
2023/01/22 15:25:59;;;;;;;;;;;;;;;-0.62;100.00;103038.84;10487260;28;20348;-77
2023/01/22 15:31:00;;;;;;;;;;;;;;;-0.56;100.00;103038.69;10486263;28;19928;-77
2023/01/22 15:36:00;;;;;;;;;;;;;;;-0.54;100.00;103034.66;10484316;28;20249;-77
2023/01/22 15:41:04;;;;;;;;;;;;;;;-0.57;100.00;103039.41;10524916;28;19992;-77
2023/01/22 15:46:04;;;;;;;;;;;;;;;-0.60;100.00;103046.00;10506947;28;19926;-77
2023/01/22 15:51:08;;;;;;;;;;;;;;;-0.62;100.00;103037.16;10524893;28;20410;-77
2023/01/22 15:56:08;;;;;;;;;;;;;;;-0.64;100.00;103040.28;10507649;28;20283;-77
2023/01/22 16:01:08;;;;;;;;;;;;;;;-0.67;100.00;103038.22;10525644;28;19923;-77
2023/01/22 16:06:13;;;;;;;;;;;;;;;-0.68;100.00;103035.47;10507066;28;19920;-76
2023/01/22 16:11:13;;;;;;;;;;;;;;;-0.70;100.00;103031.78;10506728;28;19965;-77
2023/01/22 16:16:15;;;;;;;;;;;;;;;-0.70;100.00;103036.94;10490326;28;20337;-75
2023/01/22 16:21:15;;;;;;;;;;;;;;;-0.72;100.00;103041.88;10506172;28;19920;-77
2023/01/22 16:26:16;;;;;;;;;;;;;;;-0.72;100.00;103053.81;10523528;28;19919;-77
2023/01/22 16:31:18;;;;;;;;;;;;;;;-0.73;100.00;103052.88;10493394;28;19920;-77
2023/01/22 16:36:18;;;;;;;;;;;;;;;-0.74;100.00;103051.03;10494974;28;20011;-77
2023/01/22 16:41:26;;;;;;;;;;;;;;;-0.72;100.00;103049.56;10505856;28;19923;-76
2023/01/22 16:46:27;;;;;;;;;;;;;;;-0.73;100.00;103055.44;10481345;28;19912;-77
2023/01/22 16:51:31;;;;;;;;;;;;;;;-0.77;100.00;103055.78;10479148;28;20008;-77
2023/01/22 16:56:32;;;;;;;;;;;;;;;-0.76;100.00;103062.78;10464365;28;19924;-77
2023/01/22 17:01:32;;;;;;;;;;;;;;;-0.79;100.00;103065.88;10464414;28;19943;-77
2023/01/22 17:06:36;;;;;;;;;;;;;;;-0.89;100.00;103068.91;10464305;28;19917;-77
2023/01/22 17:11:37;;;;;;;;;;;;;;;-0.93;100.00;103084.66;10504917;28;20495;-77
2023/01/22 17:16:37;;;;;;;;;;;;;;;-0.84;100.00;103081.44;10489067;28;19920;-77
2023/01/22 17:21:37;;;;;;;;;;;;;;;-0.82;100.00;103078.34;10525500;28;20774;-77
2023/01/22 17:26:38;;;;;;;;;;;;;;;-0.76;100.00;103078.19;10521032;28;19934;-77
2023/01/22 17:31:39;;;;;;;;;;;;;;;-0.71;100.00;103090.00;10495223;28;19924;-77
2023/01/22 17:36:39;;;;;;;;;;;;;;;-0.70;100.00;103083.22;10515789;28;19923;-77
2023/01/22 17:41:40;;;;;;;;;;;;;;;-0.70;100.00;103073.84;10484001;28;20291;-76
2023/01/22 17:46:40;;;;;;;;;;;;;;;-0.73;100.00;103083.75;10487172;28;19920;-75
2023/01/22 17:51:41;;;;;;;;;;;;;;;-0.82;100.00;103064.56;10480413;28;19920;-76
2023/01/22 17:56:46;;;;;;;;;;;;;;;-0.81;100.00;103082.75;10472453;28;19926;-76
2023/01/22 18:01:46;;;;;;;;;;;;;;;-0.75;100.00;103078.41;10495541;28;19920;-77
2023/01/22 18:06:46;;;;;;;;;;;;;;;-0.72;100.00;103082.09;10503578;28;19923;-76
2023/01/22 18:11:47;;;;;;;;;;;;;;;-0.71;100.00;103091.66;10506085;28;20334;-76
2023/01/22 18:16:47;;;;;;;;;;;;;;;-0.73;100.00;103093.13;10484425;28;20425;-76
2023/01/22 18:21:48;;;;;;;;;;;;;;;-0.72;100.00;103084.69;10464948;28;19966;-75
2023/01/22 18:26:49;;;;;;;;;;;;;;;-0.71;100.00;103077.13;10508528;28;20007;-76
2023/01/22 18:31:49;;;;;;;;;;;;;;;-0.73;100.00;103086.31;10470432;28;19920;-76
2023/01/22 18:36:49;;;;;;;;;;;;;;;-0.70;100.00;103098.66;10493215;28;19920;-76
2023/01/22 18:41:49;;;;;;;;;;;;;;;-0.69;100.00;103098.84;10473277;28;19920;-77
2023/01/22 18:46:53;;;;;;;;;;;;;;;-0.68;100.00;103100.69;10505622;28;19995;-75
2023/01/22 18:51:57;;;;;;;;;;;;;;;-0.67;100.00;103105.09;10519180;28;19920;-76
2023/01/22 18:56:58;;;;;;;;;;;;;;;-0.69;100.00;103100.50;10492976;28;20011;-77
2023/01/22 19:01:59;;;;;;;;;;;;;;;-0.69;100.00;103115.94;10490574;28;20363;-77
2023/01/22 19:06:59;;;;;;;;;;;;;;;-0.66;100.00;103117.25;10509053;28;19924;-76
2023/01/22 19:12:00;;;;;;;;;;;;;;;-0.67;100.00;103123.09;10486314;28;19921;-76
2023/01/22 19:17:02;;;;;;;;;;;;;;;-0.64;100.00;103126.06;10476952;28;20291;-76
2023/01/22 19:22:03;;;;;;;;;;;;;;;-0.61;100.00;103123.00;10495047;28;20404;-76
2023/01/22 19:27:03;;;;;;;;;;;;;;;-0.60;100.00;103128.31;10496798;28;20019;-76
2023/01/22 19:32:03;;;;;;;;;;;;;;;-0.61;100.00;103131.63;10506280;28;19998;-76
2023/01/22 19:37:05;;;;;;;;;;;;;;;-0.61;100.00;103149.63;10508074;28;19953;-76
2023/01/22 19:42:05;;;;;;;;;;;;;;;-0.62;100.00;103155.50;10523423;28;19927;-76
2023/01/22 19:47:06;;;;;;;;;;;;;;;-0.61;100.00;103159.91;10498668;28;19920;-76
2023/01/22 19:52:07;;;;;;;;;;;;;;;-0.62;100.00;103158.06;10468020;28;19912;-76
2023/01/22 19:57:08;;;;;;;;;;;;;;;-0.61;100.00;103157.34;10491017;28;19924;-76
2023/01/22 20:02:11;;;;;;;;;;;;;;;-0.62;100.00;103152.91;10512839;28;19927;-76
2023/01/22 20:07:12;;;;;;;;;;;;;;;-0.66;100.00;103147.19;10505705;28;19923;-76
2023/01/22 20:12:12;;;;;;;;;;;;;;;-0.61;100.00;103149.63;10518115;28;20421;-76
2023/01/22 20:17:12;;;;;;;;;;;;;;;-0.62;100.00;103146.88;10509990;28;19924;-76
2023/01/22 20:22:13;;;;;;;;;;;;;;;-0.58;100.00;103156.84;10516291;28;20007;-75
2023/01/22 20:27:13;;;;;;;;;;;;;;;-0.56;100.00;103155.38;10464481;28;20010;-76
2023/01/22 20:32:13;;;;;;;;;;;;;;;-0.54;100.00;103156.50;10495062;28;19989;-76
2023/01/22 20:37:14;;;;;;;;;;;;;;;-0.52;100.00;103154.09;10512375;28;19942;-76
2023/01/22 20:42:14;;;;;;;;;;;;;;;-0.48;100.00;103170.16;10502934;28;19966;-76
2023/01/22 20:47:14;;;;;;;;;;;;;;;-0.48;100.00;103166.66;10492761;28;19999;-75
2023/01/22 20:52:15;;;;;;;;;;;;;;;-0.50;100.00;103169.03;10507204;28;20030;-76
2023/01/22 20:57:15;;;;;;;;;;;;;;;-0.51;100.00;103179.09;10527492;28;19920;-76
2023/01/22 21:02:15;;;;;;;;;;;;;;;-0.54;100.00;103178.72;10500213;28;19927;-76
2023/01/22 21:07:16;;;;;;;;;;;;;;;-0.53;100.00;103180.56;10488860;28;19964;-76
2023/01/22 21:12:16;;;;;;;;;;;;;;;-0.51;100.00;103180.06;10505038;28;19920;-76
2023/01/22 21:17:17;;;;;;;;;;;;;;;-0.51;100.00;103173.97;10488918;28;19942;-76
2023/01/22 21:22:18;;;;;;;;;;;;;;;-0.49;100.00;103175.09;10518032;28;19927;-76
2023/01/22 21:27:18;;;;;;;;;;;;;;;-0.51;100.00;103166.25;10495888;28;19927;-76
2023/01/22 21:32:19;;;;;;;;;;;;;;;-0.49;100.00;103162.22;10512664;28;20002;-76
2023/01/22 21:37:19;;;;;;;;;;;;;;;-0.49;100.00;103169.94;10527130;28;20356;-76
2023/01/22 21:47:38;;;;;;;;;;;;;;;-0.49;100.00;103188.91;10496352;28;19920;-76
2023/01/22 21:52:39;;;;;;;;;;;;;;;-0.50;100.00;103188.69;10491854;28;19943;-76
2023/01/22 21:57:40;;;;;;;;;;;;;;;-0.47;100.00;103195.16;10495067;28;19932;-76
2023/01/22 22:02:40;;;;;;;;;;;;;;;-0.46;100.00;103201.22;10487449;28;20291;-76
2023/01/22 22:07:42;;;;;;;;;;;;;;;-0.46;100.00;103193.50;10518938;28;19927;-76
2023/01/22 22:12:42;;;;;;;;;;;;;;;-0.49;100.00;103190.53;10523248;28;19971;-76
2023/01/22 22:17:44;;;;;;;;;;;;;;;-0.49;100.00;103188.91;10494808;28;20474;-76
2023/01/22 22:22:44;;;;;;;;;;;;;;;-0.47;100.00;103196.78;10469563;28;19991;-76
2023/01/22 22:27:45;;;;;;;;;;;;;;;-0.49;100.00;103194.03;10519818;28;19920;-76
2023/01/22 22:32:45;;;;;;;;;;;;;;;-0.49;100.00;103194.03;10528263;28;20271;-75
2023/01/22 22:37:45;;;;;;;;;;;;;;;-0.48;100.00;103213.91;10486127;28;19920;-76
2023/01/22 22:42:46;;;;;;;;;;;;;;;-0.45;100.00;103204.00;10528113;28;19916;-75
2023/01/22 22:47:46;;;;;;;;;;;;;;;-0.48;100.00;103203.59;10518514;28;19985;-77
2023/01/22 22:52:46;;;;;;;;;;;;;;;-0.45;100.00;103211.72;10527741;28;19924;-76
2023/01/22 22:57:47;;;;;;;;;;;;;;;-0.41;100.00;103205.31;10493730;28;20364;-76
2023/01/22 23:02:47;;;;;;;;;;;;;;;-0.40;100.00;103208.81;10484816;28;19930;-75
2023/01/22 23:07:47;;;;;;;;;;;;;;;-0.41;100.00;103207.88;10504194;28;20045;-76
2023/01/22 23:12:48;;;;;;;;;;;;;;;-0.42;100.00;103216.31;10523723;28;20410;-75
2023/01/22 23:17:48;;;;;;;;;;;;;;;-0.41;100.00;103218.16;10488066;28;20004;-75
2023/01/22 23:22:49;;;;;;;;;;;;;;;-0.42;100.00;103207.69;10483809;28;19923;-75
2023/01/22 23:27:50;;;;;;;;;;;;;;;-0.44;100.00;103207.47;10501937;28;20413;-75
2023/01/22 23:32:50;;;;;;;;;;;;;;;-0.45;100.00;103208.22;10510616;28;19963;-75
2023/01/22 23:37:51;;;;;;;;;;;;;;;-0.44;100.00;103202.34;10524459;28;20368;-75
2023/01/22 23:42:51;;;;;;;;;;;;;;;-0.42;100.00;103205.13;10512006;28;19946;-75
2023/01/22 23:47:51;;;;;;;;;;;;;;;-0.43;100.00;103199.03;10509142;28;19923;-76
2023/01/22 23:52:52;;;;;;;;;;;;;;;-0.39;100.00;103192.66;10495414;28;20010;-75
2023/01/22 23:57:52;;;;;;;;;;;;;;;-0.40;100.00;103204.56;10483722;28;19931;-76
